createdAt,value
2023-04-04T00:00:24.663Z,76.80
2023-04-04T00:02:51.675Z,76.49
2023-04-04T00:05:18.889Z,76.47
2023-04-04T00:07:48.140Z,76.02
2023-04-04T00:10:15.527Z,76.08
2023-04-04T00:12:43.027Z,76.61
2023-04-04T00:15:09.928Z,77.08
2023-04-04T00:17:36.343Z,76.66
2023-04-04T00:20:04.350Z,76.45
2023-04-04T00:22:31.475Z,76.43
2023-04-04T00:24:58.006Z,76.23
2023-04-04T00:27:24.424Z,76.52
2023-04-04T00:29:50.821Z,76.91
2023-04-04T00:32:17.262Z,77.35
2023-04-04T00:34:43.658Z,76.51
2023-04-04T00:37:13.042Z,76.68
2023-04-04T00:39:40.335Z,76.73
2023-04-04T00:42:07.316Z,76.89
2023-04-04T00:44:35.708Z,76.57
2023-04-04T00:47:04.120Z,76.56
2023-04-04T00:49:30.558Z,76.48
2023-04-04T00:51:57.931Z,76.69
2023-04-04T00:54:24.399Z,76.84
2023-04-04T00:56:55.216Z,76.57
2023-04-04T00:59:27.771Z,77.60
2023-04-04T01:01:54.574Z,77.34
2023-04-04T01:04:21.200Z,76.83
2023-04-04T01:06:48.869Z,76.93
2023-04-04T01:09:15.664Z,76.28
2023-04-04T01:11:43.986Z,77.50
2023-04-04T01:14:10.485Z,77.07
2023-04-04T01:16:37.028Z,77.09
2023-04-04T01:19:34.790Z,77.74
2023-04-04T01:22:06.637Z,77.91
2023-04-04T01:24:34.126Z,78.04
2023-04-04T01:27:03.169Z,78.48
2023-04-04T01:29:29.580Z,78.97
2023-04-04T01:32:08.393Z,78.58
2023-04-04T01:34:47.232Z,78.41
2023-04-04T01:37:23.208Z,78.61
2023-04-04T01:39:56.358Z,78.50
2023-04-04T01:42:24.295Z,78.40
2023-04-04T01:44:56.987Z,78.12
2023-04-04T01:47:29.243Z,78.68
2023-04-04T01:49:55.725Z,78.78
2023-04-04T01:52:22.896Z,78.06
2023-04-04T01:54:49.297Z,77.85
2023-04-04T01:57:15.765Z,77.56
2023-04-04T01:59:42.963Z,78.07
2023-04-04T02:02:10.719Z,77.82
2023-04-04T02:04:37.508Z,77.76
2023-04-04T02:07:04.497Z,77.22
2023-04-04T02:09:31.389Z,76.79
2023-04-04T02:11:57.775Z,77.25
2023-04-04T02:14:24.316Z,77.31
2023-04-04T02:16:51.655Z,77.66
2023-04-04T02:19:18.732Z,77.80
2023-04-04T02:21:45.208Z,77.88
2023-04-04T02:24:11.650Z,77.17
2023-04-04T02:26:38.946Z,77.94
2023-04-04T02:29:06.262Z,77.40
2023-04-04T02:31:32.784Z,77.89
2023-04-04T02:33:59.240Z,78.74
2023-04-04T02:36:25.643Z,78.18
2023-04-04T02:38:54.077Z,78.07
2023-04-04T02:41:23.744Z,78.27
2023-04-04T02:43:50.329Z,78.54
2023-04-04T02:46:22.096Z,78.51
2023-04-04T02:48:53.264Z,78.46
2023-04-04T02:51:19.862Z,78.45
2023-04-04T02:53:46.948Z,78.47
2023-04-04T02:56:20.564Z,78.15
2023-04-04T02:58:47.088Z,77.79
2023-04-04T03:01:13.521Z,78.09
2023-04-04T03:03:40.020Z,78.89
2023-04-04T03:06:06.576Z,78.93
2023-04-04T03:08:32.999Z,78.90
2023-04-04T03:10:59.709Z,79.53
2023-04-04T03:13:26.947Z,79.24
2023-04-04T03:16:03.032Z,79.19
2023-04-04T03:18:35.247Z,78.76
2023-04-04T03:21:01.666Z,78.77
2023-04-04T03:23:28.074Z,78.75
2023-04-04T03:25:55.173Z,79.72
2023-04-04T03:28:21.765Z,79.44
2023-04-04T03:30:48.169Z,79.54
2023-04-04T03:33:15.213Z,79.51
2023-04-04T03:35:42.134Z,79.37
2023-04-04T03:38:09.779Z,79.60
2023-04-04T03:40:36.547Z,79.58
2023-04-04T03:43:08.676Z,79.60
2023-04-04T03:45:38.424Z,79.56
2023-04-04T03:48:05.539Z,79.75
2023-04-04T03:50:32.067Z,78.93
2023-04-04T03:52:58.597Z,79.56
2023-04-04T03:55:26.230Z,80.33
2023-04-04T03:57:57.383Z,79.72
2023-04-04T04:00:23.973Z,80.39
2023-04-04T04:02:50.393Z,80.24
2023-04-04T04:05:18.929Z,80.88
2023-04-04T04:07:45.631Z,80.61
2023-04-04T04:10:14.158Z,80.24
2023-04-04T04:12:40.700Z,80.06
2023-04-04T04:15:07.862Z,79.75
2023-04-04T04:17:34.801Z,79.59
2023-04-04T04:20:01.408Z,79.48
2023-04-04T04:22:36.162Z,79.39
2023-04-04T04:25:03.131Z,79.41
2023-04-04T04:27:30.926Z,79.22
2023-04-04T04:29:57.498Z,80.06
2023-04-04T04:32:26.493Z,79.63
2023-04-04T04:34:53.877Z,79.10
2023-04-04T04:37:26.261Z,79.63
2023-04-04T04:39:55.403Z,79.86
2023-04-04T04:42:44.254Z,79.94
2023-04-04T04:45:10.926Z,80.12
2023-04-04T04:47:40.117Z,80.57
2023-04-04T04:50:08.803Z,80.34
2023-04-04T04:52:40.181Z,80.30
2023-04-04T04:55:07.408Z,80.25
2023-04-04T04:57:38.203Z,80.78
2023-04-04T05:00:12.586Z,82.34
2023-04-04T05:02:39.108Z,82.36
2023-04-04T05:05:06.389Z,83.06
2023-04-04T05:07:33.830Z,82.73
2023-04-04T05:10:00.402Z,83.74
2023-04-04T05:12:27.123Z,83.15
2023-04-04T05:14:54.798Z,83.39
2023-04-04T05:17:22.972Z,82.87
2023-04-04T05:19:51.728Z,82.59
2023-04-04T05:22:21.139Z,82.51
2023-04-04T05:24:51.233Z,82.08
2023-04-04T05:27:21.653Z,82.17
2023-04-04T05:29:54.289Z,82.75
2023-04-04T05:32:21.819Z,82.99
2023-04-04T05:34:57.167Z,82.70
2023-04-04T05:37:23.562Z,82.54
2023-04-04T05:39:50.001Z,83.42
2023-04-04T05:42:17.691Z,83.62
2023-04-04T05:44:49.069Z,83.66
2023-04-04T05:47:15.994Z,82.04
2023-04-04T05:49:45.903Z,83.33
2023-04-04T05:52:12.418Z,82.45
2023-04-04T05:54:38.868Z,82.79
2023-04-04T05:57:11.836Z,81.24
2023-04-04T05:59:49.834Z,81.46
2023-04-04T06:02:17.358Z,80.79
2023-04-04T06:04:49.333Z,81.09
2023-04-04T06:07:21.369Z,81.12
2023-04-04T06:09:50.531Z,79.83
2023-04-04T06:12:17.319Z,79.35
2023-04-04T06:14:43.735Z,78.83
2023-04-04T06:17:10.753Z,79.25
2023-04-04T06:19:37.213Z,77.32
2023-04-04T06:22:03.627Z,77.77
2023-04-04T06:24:33.364Z,77.47
2023-04-04T06:27:01.743Z,75.59
2023-04-04T06:29:28.594Z,74.46
2023-04-04T06:31:58.291Z,75.13
2023-04-04T06:34:34.111Z,74.70
2023-04-04T06:37:01.290Z,73.69
2023-04-04T06:39:34.322Z,73.40
2023-04-04T06:42:03.466Z,73.02
2023-04-04T06:44:32.673Z,72.16
2023-04-04T06:46:59.143Z,71.92
2023-04-04T06:49:25.643Z,71.77
2023-04-04T06:51:52.599Z,69.38
2023-04-04T06:54:19.698Z,68.64
2023-04-04T06:56:46.119Z,67.91
2023-04-04T06:59:12.981Z,68.24
2023-04-04T07:01:39.505Z,68.42
2023-04-04T07:04:05.937Z,68.11
2023-04-04T07:06:32.331Z,68.68
2023-04-04T07:08:58.839Z,67.58
2023-04-04T07:11:25.384Z,68.67
2023-04-04T07:13:51.787Z,68.34
2023-04-04T07:16:18.186Z,68.77
2023-04-04T07:18:44.577Z,68.24
2023-04-04T07:21:10.967Z,66.97
2023-04-04T07:23:37.369Z,66.38
2023-04-04T07:26:03.782Z,64.95
2023-04-04T07:28:30.211Z,64.52
2023-04-04T07:31:00.724Z,61.98
2023-04-04T07:33:27.700Z,61.36
2023-04-04T07:35:54.635Z,61.50
2023-04-04T07:38:21.064Z,61.42
2023-04-04T07:40:50.505Z,60.28
2023-04-04T07:43:17.209Z,59.04
2023-04-04T07:45:43.688Z,59.77
2023-04-04T07:48:10.211Z,58.67
2023-04-04T07:50:36.670Z,59.00
2023-04-04T07:53:03.104Z,58.62
2023-04-04T07:55:29.599Z,58.07
2023-04-04T07:57:56.240Z,57.72
2023-04-04T08:00:25.718Z,57.79
2023-04-04T08:02:56.231Z,57.93
2023-04-04T08:05:23.508Z,58.13
2023-04-04T08:07:49.922Z,57.53
2023-04-04T08:10:20.728Z,56.89
2023-04-04T08:12:48.055Z,56.78
2023-04-04T08:15:16.314Z,57.14
2023-04-04T08:17:45.341Z,56.44
2023-04-04T08:20:12.435Z,53.71
2023-04-04T08:22:40.841Z,53.69
2023-04-04T08:25:07.563Z,53.31
2023-04-04T08:27:34.110Z,54.29
2023-04-04T08:30:00.541Z,53.54
2023-04-04T08:32:26.974Z,53.87
2023-04-04T08:34:53.398Z,53.77
2023-04-04T08:37:19.790Z,54.28
2023-04-04T08:39:46.187Z,52.89
2023-04-04T08:42:16.787Z,52.47
2023-04-04T08:44:45.678Z,51.43
2023-04-04T08:47:13.437Z,52.29
2023-04-04T08:49:44.030Z,54.03
2023-04-04T08:52:12.765Z,53.35
2023-04-04T08:54:40.668Z,54.09
2023-04-04T08:57:08.251Z,53.81
2023-04-04T08:59:34.966Z,53.57
2023-04-04T09:02:15.867Z,53.15
2023-04-04T09:04:48.834Z,53.13
2023-04-04T09:07:22.744Z,53.13
2023-04-04T09:09:50.518Z,52.90
2023-04-04T09:12:17.212Z,53.78
2023-04-04T09:14:44.443Z,52.47
2023-04-04T09:17:10.953Z,52.05
2023-04-04T09:19:37.804Z,52.51
2023-04-04T09:22:07.886Z,51.20
2023-04-04T09:24:42.058Z,51.55
2023-04-04T09:27:13.181Z,51.65
2023-04-04T09:29:40.877Z,51.29
2023-04-04T09:32:09.146Z,51.06
2023-04-04T09:34:36.469Z,50.54
2023-04-04T09:37:05.199Z,50.38
2023-04-04T09:39:33.410Z,50.83
2023-04-04T09:42:01.211Z,49.52
2023-04-04T09:44:33.243Z,49.69
2023-04-04T09:47:30.636Z,48.31
2023-04-04T09:50:02.873Z,49.30
2023-04-04T09:52:33.873Z,47.75
2023-04-04T09:55:01.495Z,45.98
2023-04-04T09:57:37.993Z,47.58
2023-04-04T10:00:09.440Z,47.80
2023-04-04T10:02:46.903Z,46.88
2023-04-04T10:05:14.233Z,47.16
2023-04-04T10:07:42.296Z,47.60
2023-04-04T10:10:11.698Z,47.11
2023-04-04T10:12:38.733Z,47.06
2023-04-04T10:15:05.548Z,47.34
2023-04-04T10:17:38.314Z,46.25
2023-04-04T10:20:06.681Z,47.32
2023-04-04T10:22:33.881Z,45.87
2023-04-04T10:25:00.556Z,46.01
2023-04-04T10:27:27.346Z,45.64
2023-04-04T10:29:53.892Z,45.42
2023-04-04T10:32:26.650Z,45.88
2023-04-04T10:35:02.734Z,45.67
2023-04-04T10:37:34.840Z,47.05
2023-04-04T10:40:06.742Z,46.99
2023-04-04T10:42:39.968Z,46.32
2023-04-04T10:45:20.359Z,46.18
2023-04-04T10:47:48.339Z,47.06
2023-04-04T10:50:15.214Z,47.16
2023-04-04T10:52:44.495Z,45.42
2023-04-04T10:55:12.961Z,45.63
2023-04-04T10:57:44.710Z,45.10
2023-04-04T11:00:13.074Z,45.22
2023-04-04T11:02:54.389Z,44.96
2023-04-04T11:05:47.146Z,45.31
2023-04-04T11:08:24.937Z,46.50
2023-04-04T11:10:53.462Z,45.86
2023-04-04T11:13:35.681Z,43.98
2023-04-04T11:16:15.086Z,43.94
2023-04-04T11:18:41.576Z,43.84
2023-04-04T11:21:10.082Z,43.21
2023-04-04T11:23:48.658Z,42.86
2023-04-04T11:26:30.618Z,43.86
2023-04-04T11:29:02.096Z,44.04
2023-04-04T11:31:32.562Z,44.90
2023-04-04T11:34:12.240Z,45.02
2023-04-04T11:36:42.993Z,44.64
2023-04-04T11:39:30.271Z,44.34
2023-04-04T11:42:06.803Z,42.73
2023-04-04T11:44:39.704Z,43.02
2023-04-04T11:47:06.034Z,44.22
2023-04-04T11:49:37.776Z,43.56
2023-04-04T11:52:09.920Z,43.76
2023-04-04T11:54:37.694Z,43.99
2023-04-04T11:57:06.740Z,44.82
2023-04-04T11:59:33.254Z,44.44
2023-04-04T12:02:00.393Z,42.82
2023-04-04T12:04:27.558Z,43.58
2023-04-04T12:06:56.517Z,44.05
2023-04-04T12:09:25.732Z,42.95
2023-04-04T12:11:52.650Z,41.55
2023-04-04T12:14:20.844Z,41.91
2023-04-04T12:16:52.402Z,42.58
2023-04-04T12:19:18.874Z,41.46
2023-04-04T12:21:49.048Z,41.26
2023-04-04T12:24:15.806Z,42.01
2023-04-04T12:26:44.633Z,42.32
2023-04-04T12:29:13.734Z,42.18
2023-04-04T12:31:42.968Z,41.52
2023-04-04T12:34:33.473Z,41.52
2023-04-04T12:37:01.740Z,41.86
2023-04-04T12:39:29.789Z,42.06
2023-04-04T12:42:03.658Z,41.79
2023-04-04T12:44:34.404Z,41.58
2023-04-04T12:47:04.623Z,40.31
2023-04-04T12:49:35.440Z,40.58
2023-04-04T12:52:05.206Z,41.06
2023-04-04T12:54:32.797Z,41.32
2023-04-04T12:57:04.171Z,41.11
2023-04-04T12:59:32.760Z,41.38
2023-04-04T13:02:02.602Z,41.19
2023-04-04T13:04:29.193Z,40.69
2023-04-04T13:06:55.667Z,40.82
2023-04-04T13:09:23.356Z,40.72
2023-04-04T13:11:57.142Z,40.79
2023-04-04T13:14:23.539Z,41.17
2023-04-04T13:17:05.447Z,40.13
2023-04-04T13:19:32.203Z,40.98
2023-04-04T13:22:00.227Z,40.49
2023-04-04T13:24:26.611Z,39.40
2023-04-04T13:26:53.056Z,39.73
2023-04-04T13:29:19.612Z,39.71
2023-04-04T13:31:46.017Z,39.96
2023-04-04T13:34:12.431Z,39.95
2023-04-04T13:36:38.848Z,40.18
2023-04-04T13:39:05.323Z,39.97
2023-04-04T13:41:31.741Z,40.34
2023-04-04T13:43:58.137Z,41.45
2023-04-04T13:46:24.572Z,41.78
2023-04-04T13:48:51.007Z,41.79
2023-04-04T13:51:17.467Z,40.18
2023-04-04T13:53:47.102Z,39.84
2023-04-04T13:56:18.341Z,39.89
2023-04-04T13:58:45.725Z,39.56
2023-04-04T14:01:12.369Z,39.49
2023-04-04T14:03:38.826Z,38.94
2023-04-04T14:06:10.409Z,39.32
2023-04-04T14:08:37.416Z,39.18
2023-04-04T14:11:04.108Z,39.42
2023-04-04T14:13:32.541Z,39.23
2023-04-04T14:15:58.980Z,38.88
2023-04-04T14:18:25.636Z,38.90
2023-04-04T14:20:52.065Z,38.58
2023-04-04T14:23:18.463Z,38.12
2023-04-04T14:25:45.113Z,38.69
2023-04-04T14:28:11.864Z,38.34
2023-04-04T14:30:38.311Z,38.05
2023-04-04T14:33:04.761Z,38.70
2023-04-04T14:35:31.204Z,38.24
2023-04-04T14:37:57.606Z,38.33
2023-04-04T14:40:23.990Z,39.08
2023-04-04T14:42:50.564Z,39.79
2023-04-04T14:45:17.588Z,38.73
2023-04-04T14:47:44.053Z,37.98
2023-04-04T14:50:10.558Z,38.42
2023-04-04T14:52:37.027Z,38.46
2023-04-04T14:55:03.750Z,38.75
2023-04-04T14:57:32.131Z,38.77
2023-04-04T15:00:02.238Z,39.13
2023-04-04T15:02:28.862Z,39.17
2023-04-04T15:04:55.321Z,38.29
2023-04-04T15:07:24.181Z,38.83
2023-04-04T15:09:50.633Z,38.66
2023-04-04T15:12:17.088Z,38.97
2023-04-04T15:14:43.468Z,38.81
2023-04-04T15:17:09.888Z,38.83
2023-04-04T15:19:36.984Z,38.50
2023-04-04T15:22:04.662Z,39.11
2023-04-04T15:24:31.065Z,38.73
2023-04-04T15:26:57.848Z,39.21
2023-04-04T15:29:24.381Z,39.09
2023-04-04T15:31:50.903Z,39.24
2023-04-04T15:34:17.349Z,39.33
2023-04-04T15:36:44.213Z,39.93
2023-04-04T15:39:11.884Z,40.36
2023-04-04T15:41:38.303Z,40.05
2023-04-04T15:44:05.336Z,40.50
2023-04-04T15:46:31.853Z,41.48
2023-04-04T15:48:58.316Z,41.39
2023-04-04T15:51:25.731Z,41.51
2023-04-04T15:53:55.770Z,42.03
2023-04-04T15:56:22.487Z,42.51
2023-04-04T15:58:49.005Z,42.40
2023-04-04T16:01:15.472Z,42.57
2023-04-04T16:03:43.015Z,42.87
2023-04-04T16:06:12.898Z,42.83
2023-04-04T16:08:42.032Z,43.06
2023-04-04T16:11:08.519Z,42.91
2023-04-04T16:13:34.936Z,43.16
2023-04-04T16:16:01.392Z,43.39
2023-04-04T16:18:28.008Z,43.41
2023-04-04T16:20:54.401Z,43.43
2023-04-04T16:23:21.539Z,43.20
2023-04-04T16:25:47.956Z,43.67
2023-04-04T16:28:14.349Z,43.66
2023-04-04T16:30:40.853Z,44.44
2023-04-04T16:33:07.420Z,44.53
2023-04-04T16:35:34.560Z,45.00
2023-04-04T16:38:00.975Z,44.38
2023-04-04T16:40:27.401Z,45.07
2023-04-04T16:42:53.803Z,44.75
2023-04-04T16:45:21.584Z,44.73
2023-04-04T16:47:48.067Z,45.15
2023-04-04T16:50:14.514Z,45.95
2023-04-04T16:52:40.947Z,44.93
2023-04-04T16:55:08.690Z,45.10
2023-04-04T16:57:35.266Z,45.81
2023-04-04T17:00:01.664Z,45.45
2023-04-04T17:02:28.076Z,45.77
2023-04-04T17:04:54.479Z,45.25
2023-04-04T17:07:21.100Z,45.25
2023-04-04T17:09:48.795Z,45.64
2023-04-04T17:12:15.465Z,45.53
2023-04-04T17:14:41.911Z,46.38
2023-04-04T17:17:08.768Z,45.97
2023-04-04T17:19:35.712Z,46.21
2023-04-04T17:22:02.272Z,46.29
2023-04-04T17:24:28.665Z,47.45
2023-04-04T17:26:57.734Z,47.54
2023-04-04T17:29:26.838Z,47.78
2023-04-04T17:31:55.157Z,47.85
2023-04-04T17:34:21.910Z,48.31
2023-04-04T17:36:48.713Z,49.50
2023-04-04T17:39:15.257Z,49.09
2023-04-04T17:41:41.913Z,49.97
2023-04-04T17:44:09.127Z,49.68
2023-04-04T17:46:36.193Z,50.57
2023-04-04T17:49:02.680Z,49.90
2023-04-04T17:51:29.261Z,50.47
2023-04-04T17:53:55.657Z,51.00
2023-04-04T17:56:22.064Z,51.76
2023-04-04T17:58:48.454Z,52.05
2023-04-04T18:01:14.946Z,52.89
2023-04-04T18:03:41.423Z,53.85
2023-04-04T18:06:08.602Z,54.04
2023-04-04T18:08:34.993Z,54.05
2023-04-04T18:11:01.421Z,55.42
2023-04-04T18:13:27.837Z,55.58
2023-04-04T18:15:54.300Z,56.04
2023-04-04T18:18:21.308Z,56.33
2023-04-04T18:20:50.737Z,56.05
2023-04-04T18:23:17.491Z,56.42
2023-04-04T18:25:43.892Z,54.65
2023-04-04T18:28:10.315Z,55.85
2023-04-04T18:30:37.612Z,56.08
2023-04-04T18:33:04.544Z,56.38
2023-04-04T18:35:30.974Z,57.98
2023-04-04T18:37:57.362Z,58.45
2023-04-04T18:40:23.794Z,58.57
2023-04-04T18:42:52.037Z,58.19
2023-04-04T18:45:20.934Z,58.02
2023-04-04T18:47:47.531Z,58.52
2023-04-04T18:50:14.476Z,58.62
2023-04-04T18:52:42.354Z,58.88
2023-04-04T18:55:09.267Z,59.32
2023-04-04T18:57:37.191Z,59.57
2023-04-04T19:00:06.501Z,57.89
2023-04-04T19:02:34.158Z,58.74
2023-04-04T19:05:03.581Z,60.10
2023-04-04T19:07:31.413Z,59.38
2023-04-04T19:09:58.147Z,60.24
2023-04-04T19:12:24.543Z,60.36
2023-04-04T19:14:50.953Z,60.73
2023-04-04T19:17:18.129Z,61.47
2023-04-04T19:19:44.528Z,61.35
2023-04-04T19:22:10.921Z,61.26
2023-04-04T19:24:40.158Z,60.55
2023-04-04T19:27:06.922Z,60.89
2023-04-04T19:29:36.209Z,61.13
2023-04-04T19:32:09.882Z,61.05
2023-04-04T19:34:36.466Z,61.00
2023-04-04T19:37:02.950Z,61.50
2023-04-04T19:39:31.539Z,61.69
2023-04-04T19:41:58.062Z,62.38
2023-04-04T19:44:24.454Z,62.75
2023-04-04T19:46:50.904Z,63.06
2023-04-04T19:49:17.828Z,61.05
2023-04-04T19:51:53.622Z,60.76
2023-04-04T19:54:25.380Z,60.63
2023-04-04T19:56:57.265Z,61.26
2023-04-04T19:59:54.552Z,61.36
2023-04-04T20:02:26.847Z,62.69
2023-04-04T20:04:54.072Z,62.62
2023-04-04T20:07:20.532Z,61.04
2023-04-04T20:09:47.491Z,60.86
2023-04-04T20:12:16.012Z,61.99
2023-04-04T20:14:42.440Z,62.04
2023-04-04T20:17:09.641Z,61.60
2023-04-04T20:19:36.561Z,62.62
2023-04-04T20:22:04.997Z,61.83
2023-04-04T20:24:31.560Z,61.49
2023-04-04T20:26:59.470Z,62.16
2023-04-04T20:29:27.889Z,62.34
2023-04-04T20:32:00.510Z,62.38
2023-04-04T20:34:42.543Z,62.74
2023-04-04T20:37:19.729Z,63.60
2023-04-04T20:39:48.854Z,64.06
2023-04-04T20:42:32.165Z,63.76
2023-04-04T20:44:58.493Z,64.61
2023-04-04T20:47:40.269Z,64.65
2023-04-04T20:50:27.165Z,63.89
2023-04-04T20:52:58.529Z,64.66
2023-04-04T20:55:26.481Z,64.57
2023-04-04T20:57:56.601Z,65.40
2023-04-04T21:00:22.940Z,65.36
2023-04-04T21:02:49.449Z,66.06
2023-04-04T21:05:27.339Z,66.97
2023-04-04T21:07:53.892Z,67.11
2023-04-04T21:10:44.838Z,67.73
2023-04-04T21:13:11.297Z,67.34
2023-04-04T21:15:39.156Z,68.08
2023-04-04T21:18:09.993Z,68.40
2023-04-04T21:20:45.866Z,68.17
2023-04-04T21:23:26.807Z,68.83
2023-04-04T21:25:59.933Z,68.80
2023-04-04T21:28:37.901Z,69.32
2023-04-04T21:31:16.206Z,69.87
2023-04-04T21:33:43.694Z,69.68
2023-04-04T21:36:18.093Z,69.34
2023-04-04T21:38:44.522Z,68.60
2023-04-04T21:41:21.564Z,68.65
2023-04-04T21:43:47.949Z,68.51
2023-04-04T21:46:14.398Z,68.36
2023-04-04T21:48:40.849Z,68.08
2023-04-04T21:51:07.237Z,67.95
2023-04-04T21:53:33.709Z,68.64
2023-04-04T21:56:00.269Z,69.24
2023-04-04T21:58:26.702Z,69.02
2023-04-04T22:00:53.135Z,67.86
2023-04-04T22:03:19.555Z,67.29
2023-04-04T22:05:46.048Z,68.04
2023-04-04T22:08:12.466Z,68.07
2023-04-04T22:10:46.211Z,68.06
2023-04-04T22:13:17.062Z,68.89
2023-04-04T22:15:46.960Z,69.06
2023-04-04T22:18:17.294Z,68.97
2023-04-04T22:20:47.848Z,68.95
2023-04-04T22:23:17.618Z,68.74
2023-04-04T22:25:44.025Z,68.45
2023-04-04T22:28:10.429Z,68.79
2023-04-04T22:30:39.039Z,69.25
2023-04-04T22:33:05.899Z,70.00
2023-04-04T22:35:32.995Z,69.86
2023-04-04T22:38:00.947Z,69.80
2023-04-04T22:40:28.554Z,70.23
2023-04-04T22:42:55.511Z,70.75
2023-04-04T22:45:22.936Z,71.22
2023-04-04T22:47:49.894Z,70.98
2023-04-04T22:50:22.737Z,70.78
2023-04-04T22:52:49.321Z,70.28
2023-04-04T22:55:18.030Z,71.25
2023-04-04T22:57:44.432Z,70.37
2023-04-04T23:00:12.161Z,71.22
2023-04-04T23:02:39.840Z,70.96
2023-04-04T23:05:08.120Z,70.32
2023-04-04T23:07:36.048Z,70.41
2023-04-04T23:10:03.638Z,70.44
2023-04-04T23:12:30.097Z,71.05
2023-04-04T23:14:58.705Z,70.89
2023-04-04T23:17:25.587Z,71.50
2023-04-04T23:19:51.979Z,71.83
2023-04-04T23:22:18.398Z,72.06
2023-04-04T23:24:44.832Z,71.81
2023-04-04T23:27:12.399Z,72.38
2023-04-04T23:29:38.791Z,72.13
2023-04-04T23:32:05.450Z,72.31
2023-04-04T23:34:31.863Z,71.89
2023-04-04T23:36:58.267Z,71.78
2023-04-04T23:39:24.653Z,71.06
2023-04-04T23:41:51.147Z,72.27
2023-04-04T23:44:17.693Z,71.84
2023-04-04T23:46:44.559Z,72.26
2023-04-04T23:49:11.995Z,72.18
2023-04-04T23:51:39.503Z,72.36
2023-04-04T23:54:07.865Z,72.04
2023-04-04T23:56:35.097Z,72.45
2023-04-04T23:59:01.924Z,72.50
